SWA3577 KOAK-KSAN
Flight info
| Callsign | SWA3577 |
|---|---|
| Flight time | 1h 0m |
| Altitude | 37000 |
| Route | CNDEL5 YYUNG LAX COMIX2 |
| Aircraft | B738/M-SDE2E3FGHIRWXY/LB1 |
Departure
| Time | 2026-05-05 00:21 |
|---|---|
| Airport | San Francisco Bay Oakland International Airport (KOAK) |
Arrival
| Time | 2026-05-05 01:22 |
|---|---|
| Airport | San Diego International Airport (KSAN) |
| Time | Latitude | Longitude | Altitude | Speed | Heading |
|---|---|---|---|---|---|
| 2026-05-04 23:50 | 37.71156 | -122.21337 | 15 ft | 0 kts | 37° |
| 2026-05-04 23:51 | 37.71118 | -122.21324 | 14 ft | 0 kts | 37° |
| 2026-05-04 23:51 | 37.71122 | -122.21313 | 14 ft | 0 kts | 55° |
| 2026-05-04 23:51 | 37.71124 | -122.21308 | 15 ft | 0 kts | 55° |
| 2026-05-05 00:12 | 37.71121 | -122.21314 | 14 ft | 2 kts | 55° |
| 2026-05-05 00:12 | 37.71112 | -122.21329 | 14 ft | 2 kts | 55° |
| 2026-05-05 00:12 | 37.71104 | -122.21343 | 14 ft | 0 kts | 55° |
| 2026-05-05 00:13 | 37.71097 | -122.21355 | 14 ft | 2 kts | 35° |
| 2026-05-05 00:13 | 37.71084 | -122.21362 | 14 ft | 2 kts | 8° |
| 2026-05-05 00:13 | 37.71069 | -122.21360 | 14 ft | 2 kts | 341° |
| 2026-05-05 00:13 | 37.71057 | -122.21352 | 14 ft | 0 kts | 314° |
| 2026-05-05 00:14 | 37.71056 | -122.21349 | 14 ft | 1 kts | 313° |
| 2026-05-05 00:14 | 37.71056 | -122.21358 | 14 ft | 0 kts | 251° |
| 2026-05-05 00:14 | 37.71046 | -122.21363 | 14 ft | 3 kts | 196° |
| 2026-05-05 00:14 | 37.71035 | -122.21369 | 14 ft | 1 kts | 217° |
| 2026-05-05 00:15 | 37.71033 | -122.21371 | 14 ft | 0 kts | 216° |
| 2026-05-05 00:17 | 37.71014 | -122.21388 | 14 ft | 9 kts | 213° |
| 2026-05-05 00:17 | 37.70938 | -122.21452 | 14 ft | 15 kts | 215° |
| 2026-05-05 00:17 | 37.70875 | -122.21532 | 14 ft | 11 kts | 257° |
| 2026-05-05 00:18 | 37.70851 | -122.21618 | 14 ft | 10 kts | 227° |
| 2026-05-05 00:18 | 37.70797 | -122.21677 | 14 ft | 10 kts | 220° |
| 2026-05-05 00:18 | 37.70735 | -122.21742 | 14 ft | 12 kts | 220° |
| 2026-05-05 00:18 | 37.70665 | -122.21787 | 14 ft | 11 kts | 174° |
| 2026-05-05 00:19 | 37.70590 | -122.21712 | 14 ft | 17 kts | 130° |
| 2026-05-05 00:19 | 37.70507 | -122.21589 | 13 ft | 19 kts | 130° |
| 2026-05-05 00:19 | 37.70423 | -122.21464 | 13 ft | 17 kts | 130° |
| 2026-05-05 00:19 | 37.70338 | -122.21389 | 13 ft | 14 kts | 159° |
| 2026-05-05 00:20 | 37.70246 | -122.21357 | 13 ft | 12 kts | 188° |
| 2026-05-05 00:20 | 37.70175 | -122.21418 | 13 ft | 11 kts | 241° |
| 2026-05-05 00:20 | 37.70195 | -122.21498 | 13 ft | 9 kts | 309° |
| 2026-05-05 00:20 | 37.70274 | -122.21616 | 13 ft | 41 kts | 310° |
| 2026-05-05 00:21 | 37.70605 | -122.22111 | 14 ft | 106 kts | 310° |
| 2026-05-05 00:21 | 37.71203 | -122.23011 | 16 ft | 158 kts | 310° |
| 2026-05-05 00:21 | 37.71957 | -122.24145 | 378 ft | 174 kts | 311° |
| 2026-05-05 00:21 | 37.72756 | -122.25217 | 1205 ft | 167 kts | 313° |
| 2026-05-05 00:22 | 37.73579 | -122.26334 | 1645 ft | 181 kts | 311° |
| 2026-05-05 00:22 | 37.74400 | -122.27594 | 1955 ft | 196 kts | 307° |
| 2026-05-05 00:22 | 37.75300 | -122.29073 | 1967 ft | 222 kts | 307° |
| 2026-05-05 00:22 | 37.76241 | -122.30698 | 2039 ft | 239 kts | 297° |
| 2026-05-05 00:23 | 37.76524 | -122.32726 | 2641 ft | 242 kts | 261° |
| 2026-05-05 00:23 | 37.75845 | -122.34667 | 3308 ft | 247 kts | 232° |
| 2026-05-05 00:23 | 37.74493 | -122.36060 | 3710 ft | 262 kts | 206° |
| 2026-05-05 00:23 | 37.72738 | -122.36796 | 4332 ft | 268 kts | 194° |
| 2026-05-05 00:24 | 37.70910 | -122.37296 | 4949 ft | 272 kts | 191° |
| 2026-05-05 00:24 | 37.69042 | -122.37769 | 5653 ft | 274 kts | 191° |
| 2026-05-05 00:24 | 37.67166 | -122.38257 | 6344 ft | 276 kts | 191° |
| 2026-05-05 00:24 | 37.65299 | -122.38759 | 7017 ft | 279 kts | 191° |
| 2026-05-05 00:25 | 37.63377 | -122.39286 | 7692 ft | 282 kts | 192° |
| 2026-05-05 00:25 | 37.61466 | -122.39814 | 8366 ft | 285 kts | 192° |
| 2026-05-05 00:25 | 37.59522 | -122.40351 | 9028 ft | 290 kts | 192° |
| 2026-05-05 00:25 | 37.57554 | -122.40894 | 9692 ft | 294 kts | 192° |
| 2026-05-05 00:26 | 37.55544 | -122.41447 | 10317 ft | 300 kts | 192° |
| 2026-05-05 00:26 | 37.53449 | -122.42022 | 10736 ft | 314 kts | 192° |
| 2026-05-05 00:26 | 37.51264 | -122.42622 | 11123 ft | 329 kts | 192° |
| 2026-05-05 00:26 | 37.48985 | -122.43247 | 11508 ft | 344 kts | 192° |
| 2026-05-05 00:27 | 37.46590 | -122.43903 | 11906 ft | 358 kts | 192° |
| 2026-05-05 00:27 | 37.44111 | -122.44579 | 12513 ft | 366 kts | 192° |
| 2026-05-05 00:27 | 37.41642 | -122.45257 | 13170 ft | 371 kts | 192° |
| 2026-05-05 00:27 | 37.39097 | -122.45956 | 13853 ft | 376 kts | 192° |
| 2026-05-05 00:28 | 37.36518 | -122.46665 | 14535 ft | 382 kts | 191° |
| 2026-05-05 00:28 | 37.33904 | -122.47380 | 15276 ft | 385 kts | 191° |
| 2026-05-05 00:28 | 37.31290 | -122.48093 | 15942 ft | 390 kts | 191° |
| 2026-05-05 00:28 | 37.28587 | -122.48829 | 16674 ft | 395 kts | 191° |
| 2026-05-05 00:29 | 37.25883 | -122.49564 | 17284 ft | 400 kts | 190° |
| 2026-05-05 00:29 | 37.23162 | -122.50304 | 17938 ft | 405 kts | 191° |
| 2026-05-05 00:29 | 37.20415 | -122.51053 | 18621 ft | 407 kts | 190° |
| 2026-05-05 00:29 | 37.17636 | -122.51809 | 19165 ft | 413 kts | 190° |
| 2026-05-05 00:30 | 37.14796 | -122.52581 | 19782 ft | 417 kts | 189° |
| 2026-05-05 00:30 | 37.11969 | -122.53348 | 20312 ft | 423 kts | 189° |
| 2026-05-05 00:30 | 37.09072 | -122.54131 | 20875 ft | 427 kts | 189° |
| 2026-05-05 00:30 | 37.06147 | -122.54786 | 21459 ft | 429 kts | 184° |
| 2026-05-05 00:31 | 37.03147 | -122.55037 | 21896 ft | 431 kts | 175° |
| 2026-05-05 00:31 | 37.00203 | -122.54655 | 22502 ft | 426 kts | 164° |
| 2026-05-05 00:31 | 36.97350 | -122.53667 | 22955 ft | 425 kts | 154° |
| 2026-05-05 00:31 | 36.94658 | -122.52135 | 23504 ft | 423 kts | 147° |
| 2026-05-05 00:32 | 36.92050 | -122.50363 | 24030 ft | 425 kts | 144° |
| 2026-05-05 00:32 | 36.89495 | -122.48498 | 24520 ft | 428 kts | 143° |
| 2026-05-05 00:32 | 36.86946 | -122.46582 | 25031 ft | 430 kts | 143° |
| 2026-05-05 00:32 | 36.84374 | -122.44637 | 25465 ft | 435 kts | 143° |
| 2026-05-05 00:33 | 36.81778 | -122.42683 | 25925 ft | 439 kts | 143° |
| 2026-05-05 00:33 | 36.79149 | -122.40717 | 26362 ft | 442 kts | 143° |
| 2026-05-05 00:33 | 36.76524 | -122.38769 | 26855 ft | 444 kts | 144° |
| 2026-05-05 00:33 | 36.73870 | -122.36809 | 27210 ft | 449 kts | 144° |
| 2026-05-05 00:34 | 36.71189 | -122.34838 | 27708 ft | 451 kts | 144° |
| 2026-05-05 00:34 | 36.68470 | -122.32845 | 27980 ft | 457 kts | 144° |
| 2026-05-05 00:34 | 36.65709 | -122.30827 | 28435 ft | 458 kts | 145° |
| 2026-05-05 00:34 | 36.62957 | -122.28818 | 28764 ft | 463 kts | 145° |
| 2026-05-05 00:35 | 36.60186 | -122.26799 | 29251 ft | 463 kts | 145° |
| 2026-05-05 00:35 | 36.57387 | -122.24762 | 29531 ft | 468 kts | 145° |
| 2026-05-05 00:35 | 36.54531 | -122.22684 | 29897 ft | 470 kts | 146° |
| 2026-05-05 00:35 | 36.51673 | -122.20608 | 30458 ft | 467 kts | 146° |
| 2026-05-05 00:36 | 36.48889 | -122.18588 | 30833 ft | 466 kts | 147° |
| 2026-05-05 00:36 | 36.46041 | -122.16523 | 31120 ft | 467 kts | 147° |
| 2026-05-05 00:36 | 36.43224 | -122.14481 | 31426 ft | 468 kts | 147° |
| 2026-05-05 00:36 | 36.40390 | -122.12428 | 31710 ft | 469 kts | 148° |
| 2026-05-05 00:37 | 36.37568 | -122.10386 | 32022 ft | 469 kts | 148° |
| 2026-05-05 00:37 | 36.34738 | -122.08338 | 32329 ft | 469 kts | 149° |
| 2026-05-05 00:37 | 36.31874 | -122.06268 | 32637 ft | 469 kts | 150° |
| 2026-05-05 00:37 | 36.29080 | -122.04251 | 32926 ft | 469 kts | 150° |
| 2026-05-05 00:38 | 36.26256 | -122.02214 | 33237 ft | 467 kts | 151° |
| 2026-05-05 00:38 | 36.23473 | -122.00208 | 33663 ft | 464 kts | 151° |
| 2026-05-05 00:38 | 36.20661 | -121.98184 | 34052 ft | 462 kts | 151° |
| 2026-05-05 00:38 | 36.17905 | -121.96204 | 34433 ft | 459 kts | 151° |
| 2026-05-05 00:39 | 36.15152 | -121.94227 | 34815 ft | 456 kts | 152° |
| 2026-05-05 00:39 | 36.12407 | -121.92255 | 35140 ft | 455 kts | 152° |
| 2026-05-05 00:39 | 36.09678 | -121.90296 | 35411 ft | 454 kts | 152° |
| 2026-05-05 00:39 | 36.06953 | -121.88342 | 35701 ft | 454 kts | 152° |
| 2026-05-05 00:40 | 36.04283 | -121.86309 | 35943 ft | 455 kts | 148° |
| 2026-05-05 00:40 | 36.01700 | -121.83991 | 36190 ft | 456 kts | 143° |
| 2026-05-05 00:40 | 35.99304 | -121.81386 | 36445 ft | 457 kts | 138° |
| 2026-05-05 00:40 | 35.97096 | -121.78546 | 36692 ft | 458 kts | 134° |
| 2026-05-05 00:41 | 35.95026 | -121.75565 | 36923 ft | 459 kts | 132° |
| 2026-05-05 00:41 | 35.92998 | -121.72458 | 37039 ft | 461 kts | 131° |
| 2026-05-05 00:41 | 35.91029 | -121.69338 | 37009 ft | 462 kts | 130° |
| 2026-05-05 00:42 | 35.87116 | -121.63030 | 36998 ft | 461 kts | 130° |
| 2026-05-05 00:42 | 35.83227 | -121.56772 | 37011 ft | 461 kts | 130° |
| 2026-05-05 00:43 | 35.79310 | -121.50517 | 36988 ft | 459 kts | 131° |
| 2026-05-05 00:43 | 35.75409 | -121.44327 | 37016 ft | 459 kts | 131° |
| 2026-05-05 00:44 | 35.71457 | -121.38084 | 37045 ft | 460 kts | 131° |
| 2026-05-05 00:44 | 35.67522 | -121.31879 | 36984 ft | 457 kts | 132° |
| 2026-05-05 00:45 | 35.63618 | -121.25739 | 36988 ft | 457 kts | 133° |
| 2026-05-05 00:45 | 35.59723 | -121.19627 | 36987 ft | 457 kts | 133° |
| 2026-05-05 00:46 | 35.55778 | -121.13449 | 36986 ft | 458 kts | 133° |
| 2026-05-05 00:46 | 35.51842 | -121.07293 | 36992 ft | 458 kts | 133° |
| 2026-05-05 00:47 | 35.48030 | -121.01035 | 36984 ft | 458 kts | 131° |
| 2026-05-05 00:47 | 35.44375 | -120.94666 | 36993 ft | 459 kts | 130° |
| 2026-05-05 00:48 | 35.40702 | -120.88236 | 37001 ft | 460 kts | 130° |
| 2026-05-05 00:48 | 35.37021 | -120.81840 | 37002 ft | 460 kts | 131° |
| 2026-05-05 00:49 | 35.33315 | -120.75449 | 37009 ft | 459 kts | 131° |
| 2026-05-05 00:49 | 35.29616 | -120.69099 | 37014 ft | 456 kts | 132° |
| 2026-05-05 00:50 | 33.97302 | -120.17047 | 37020 ft | 482 kts | 118° |
| 2026-05-05 00:50 | 33.95392 | -120.09196 | 37012 ft | 497 kts | 107° |
| 2026-05-05 00:51 | 33.94846 | -120.00762 | 36942 ft | 506 kts | 98° |
| 2026-05-05 00:51 | 33.94325 | -119.92337 | 37003 ft | 503 kts | 104° |
| 2026-05-05 00:52 | 33.93466 | -119.84062 | 37021 ft | 503 kts | 105° |
| 2026-05-05 00:52 | 33.92576 | -119.75751 | 37008 ft | 501 kts | 104° |
| 2026-05-05 00:53 | 33.91734 | -119.67417 | 37002 ft | 504 kts | 104° |
| 2026-05-05 00:53 | 33.90932 | -119.59055 | 37019 ft | 505 kts | 103° |
| 2026-05-05 00:54 | 33.90146 | -119.50681 | 37025 ft | 505 kts | 104° |
| 2026-05-05 00:54 | 33.89373 | -119.42323 | 37015 ft | 506 kts | 103° |
| 2026-05-05 00:55 | 33.88588 | -119.33929 | 37017 ft | 507 kts | 104° |
| 2026-05-05 00:55 | 33.87803 | -119.25536 | 37026 ft | 505 kts | 104° |
| 2026-05-05 00:56 | 33.87012 | -119.17167 | 37022 ft | 502 kts | 104° |
| 2026-05-05 00:56 | 33.86205 | -119.08756 | 37017 ft | 506 kts | 104° |
| 2026-05-05 00:57 | 33.85393 | -119.00347 | 36998 ft | 506 kts | 104° |
| 2026-05-05 00:57 | 33.84575 | -118.91933 | 36901 ft | 507 kts | 104° |
| 2026-05-05 00:57 | 33.84170 | -118.87749 | 37027 ft | 505 kts | 105° |
| 2026-05-05 00:58 | 33.83762 | -118.83556 | 37014 ft | 505 kts | 105° |
| 2026-05-05 00:58 | 33.82936 | -118.75183 | 37015 ft | 506 kts | 105° |
| 2026-05-05 00:59 | 33.82094 | -118.66738 | 37015 ft | 508 kts | 106° |
| 2026-05-05 00:59 | 33.81255 | -118.58355 | 37021 ft | 509 kts | 106° |
| 2026-05-05 01:00 | 33.80396 | -118.49872 | 37011 ft | 510 kts | 106° |
| 2026-05-05 01:00 | 33.79974 | -118.45688 | 36864 ft | 509 kts | 107° |
| 2026-05-05 01:00 | 33.79553 | -118.41489 | 36457 ft | 505 kts | 107° |
| 2026-05-05 01:00 | 33.79134 | -118.37309 | 35908 ft | 503 kts | 107° |
| 2026-05-05 01:01 | 33.78710 | -118.33125 | 35173 ft | 504 kts | 108° |
| 2026-05-05 01:01 | 33.78209 | -118.28989 | 34395 ft | 500 kts | 114° |
| 2026-05-05 01:01 | 33.77354 | -118.24950 | 33563 ft | 485 kts | 124° |
| 2026-05-05 01:01 | 33.75985 | -118.21420 | 32832 ft | 461 kts | 136° |
| 2026-05-05 01:02 | 33.74174 | -118.18331 | 32135 ft | 446 kts | 144° |
| 2026-05-05 01:02 | 33.72209 | -118.15531 | 31502 ft | 440 kts | 146° |
| 2026-05-05 01:02 | 33.70181 | -118.12833 | 30938 ft | 436 kts | 147° |
| 2026-05-05 01:02 | 33.68116 | -118.10160 | 30345 ft | 433 kts | 147° |
| 2026-05-05 01:03 | 33.66072 | -118.07540 | 29761 ft | 432 kts | 147° |
| 2026-05-05 01:03 | 33.64027 | -118.04921 | 29147 ft | 431 kts | 147° |
| 2026-05-05 01:03 | 33.61979 | -118.02296 | 28532 ft | 430 kts | 146° |
| 2026-05-05 01:03 | 33.59956 | -117.99690 | 27950 ft | 428 kts | 146° |
| 2026-05-05 01:04 | 33.57937 | -117.97076 | 27348 ft | 427 kts | 145° |
| 2026-05-05 01:04 | 33.53923 | -117.91900 | 26149 ft | 422 kts | 146° |
| 2026-05-05 01:04 | 33.51882 | -117.89436 | 25566 ft | 418 kts | 146° |
| 2026-05-05 01:05 | 33.49803 | -117.87028 | 24973 ft | 415 kts | 146° |
| 2026-05-05 01:05 | 33.47697 | -117.84637 | 24364 ft | 414 kts | 147° |
| 2026-05-05 01:05 | 33.45637 | -117.82303 | 23773 ft | 413 kts | 146° |
| 2026-05-05 01:05 | 33.43538 | -117.79928 | 23181 ft | 411 kts | 145° |
| 2026-05-05 01:06 | 33.41456 | -117.77642 | 22586 ft | 409 kts | 146° |
| 2026-05-05 01:06 | 33.39434 | -117.75490 | 22024 ft | 407 kts | 146° |
| 2026-05-05 01:06 | 33.37318 | -117.73264 | 21432 ft | 405 kts | 146° |
| 2026-05-05 01:06 | 33.35204 | -117.71045 | 20847 ft | 403 kts | 146° |
| 2026-05-05 01:07 | 33.33105 | -117.68835 | 20254 ft | 401 kts | 145° |
| 2026-05-05 01:07 | 33.31031 | -117.66646 | 19677 ft | 400 kts | 144° |
| 2026-05-05 01:07 | 33.28961 | -117.64455 | 19076 ft | 398 kts | 144° |
| 2026-05-05 01:07 | 33.26900 | -117.62268 | 18473 ft | 395 kts | 144° |
| 2026-05-05 01:08 | 33.24877 | -117.60112 | 17893 ft | 382 kts | 143° |
| 2026-05-05 01:08 | 33.22946 | -117.58056 | 17279 ft | 371 kts | 143° |
| 2026-05-05 01:08 | 33.21042 | -117.56042 | 16747 ft | 360 kts | 143° |
| 2026-05-05 01:08 | 33.19177 | -117.54085 | 16198 ft | 360 kts | 143° |
| 2026-05-05 01:09 | 33.17288 | -117.52111 | 15650 ft | 359 kts | 143° |
| 2026-05-05 01:09 | 33.15409 | -117.50146 | 15107 ft | 358 kts | 143° |
| 2026-05-05 01:09 | 33.13540 | -117.48209 | 14578 ft | 356 kts | 144° |
| 2026-05-05 01:09 | 33.11582 | -117.46401 | 14045 ft | 354 kts | 147° |
| 2026-05-05 01:10 | 33.09576 | -117.44728 | 13506 ft | 352 kts | 149° |
| 2026-05-05 01:10 | 33.07557 | -117.43108 | 12966 ft | 351 kts | 150° |
| 2026-05-05 01:10 | 33.05518 | -117.41476 | 12429 ft | 350 kts | 149° |
| 2026-05-05 01:10 | 33.03529 | -117.39860 | 11880 ft | 347 kts | 148° |
| 2026-05-05 01:11 | 33.01556 | -117.38229 | 11361 ft | 341 kts | 148° |
| 2026-05-05 01:11 | 32.99646 | -117.36629 | 10852 ft | 335 kts | 148° |
| 2026-05-05 01:11 | 32.97765 | -117.35045 | 10420 ft | 323 kts | 148° |
| 2026-05-05 01:11 | 32.95995 | -117.33551 | 10301 ft | 306 kts | 149° |
| 2026-05-05 01:12 | 32.94293 | -117.32118 | 10153 ft | 292 kts | 149° |
| 2026-05-05 01:12 | 32.92665 | -117.30751 | 10034 ft | 279 kts | 149° |
| 2026-05-05 01:12 | 32.91095 | -117.29437 | 9797 ft | 273 kts | 149° |
| 2026-05-05 01:12 | 32.89532 | -117.28141 | 9419 ft | 274 kts | 149° |
| 2026-05-05 01:13 | 32.87967 | -117.26844 | 9095 ft | 273 kts | 149° |
| 2026-05-05 01:13 | 32.86403 | -117.25549 | 8770 ft | 271 kts | 149° |
| 2026-05-05 01:13 | 32.84863 | -117.24273 | 8450 ft | 270 kts | 149° |
| 2026-05-05 01:13 | 32.83317 | -117.22990 | 8126 ft | 269 kts | 148° |
| 2026-05-05 01:14 | 32.81840 | -117.21638 | 7803 ft | 270 kts | 140° |
| 2026-05-05 01:14 | 32.80727 | -117.19836 | 7495 ft | 271 kts | 114° |
| 2026-05-05 01:14 | 32.80185 | -117.17701 | 7184 ft | 271 kts | 103° |
| 2026-05-05 01:14 | 32.79808 | -117.15523 | 6863 ft | 270 kts | 102° |
| 2026-05-05 01:15 | 32.79409 | -117.13329 | 6547 ft | 269 kts | 103° |
| 2026-05-05 01:15 | 32.78963 | -117.11176 | 6223 ft | 268 kts | 104° |
| 2026-05-05 01:15 | 32.78496 | -117.09072 | 6055 ft | 260 kts | 105° |
| 2026-05-05 01:15 | 32.78034 | -117.07021 | 5985 ft | 249 kts | 105° |
| 2026-05-05 01:16 | 32.77579 | -117.05061 | 5958 ft | 246 kts | 106° |
| 2026-05-05 01:16 | 32.77103 | -117.03101 | 5781 ft | 252 kts | 106° |
| 2026-05-05 01:16 | 32.76611 | -117.01102 | 5496 ft | 252 kts | 106° |
| 2026-05-05 01:16 | 32.76124 | -116.99125 | 5233 ft | 248 kts | 107° |
| 2026-05-05 01:17 | 32.75484 | -116.97216 | 4993 ft | 250 kts | 121° |
| 2026-05-05 01:17 | 32.74291 | -116.95793 | 4712 ft | 243 kts | 155° |
| 2026-05-05 01:17 | 32.72667 | -116.95363 | 4394 ft | 238 kts | 187° |
| 2026-05-05 01:17 | 32.71086 | -116.95819 | 4109 ft | 231 kts | 206° |
| 2026-05-05 01:18 | 32.69739 | -116.96820 | 3829 ft | 225 kts | 228° |
| 2026-05-05 01:18 | 32.68995 | -116.98371 | 3647 ft | 214 kts | 257° |
| 2026-05-05 01:18 | 32.68865 | -117.00127 | 3335 ft | 213 kts | 273° |
| 2026-05-05 01:18 | 32.69137 | -117.01767 | 3046 ft | 196 kts | 286° |
| 2026-05-05 01:19 | 32.69537 | -117.03248 | 2776 ft | 183 kts | 287° |
| 2026-05-05 01:19 | 32.69908 | -117.04681 | 2594 ft | 180 kts | 285° |
| 2026-05-05 01:19 | 32.70256 | -117.06103 | 2311 ft | 179 kts | 285° |
| 2026-05-05 01:19 | 32.70596 | -117.07502 | 2076 ft | 176 kts | 285° |
| 2026-05-05 01:20 | 32.70923 | -117.08833 | 1920 ft | 161 kts | 285° |
| 2026-05-05 01:20 | 32.71233 | -117.10113 | 1612 ft | 157 kts | 284° |
| 2026-05-05 01:20 | 32.71524 | -117.11317 | 1327 ft | 146 kts | 284° |
| 2026-05-05 01:20 | 32.71805 | -117.12468 | 1104 ft | 144 kts | 284° |
| 2026-05-05 01:21 | 32.72080 | -117.13613 | 901 ft | 147 kts | 284° |
| 2026-05-05 01:21 | 32.72360 | -117.14782 | 687 ft | 147 kts | 284° |
| 2026-05-05 01:21 | 32.72628 | -117.15941 | 519 ft | 146 kts | 282° |
| 2026-05-05 01:21 | 32.72906 | -117.17123 | 228 ft | 150 kts | 284° |
| 2026-05-05 01:22 | 32.73188 | -117.18288 | 33 ft | 138 kts | 284° |
| 2026-05-05 01:22 | 32.73409 | -117.19182 | 24 ft | 78 kts | 285° |
| 2026-05-05 01:22 | 32.73502 | -117.19570 | 23 ft | 35 kts | 285° |
| 2026-05-05 01:22 | 32.73526 | -117.19786 | 22 ft | 19 kts | 253° |
| 2026-05-05 01:23 | 32.73481 | -117.19853 | 22 ft | 7 kts | 168° |
| 2026-05-05 01:23 | 32.73455 | -117.19801 | 22 ft | 7 kts | 106° |
| 2026-05-05 01:23 | 32.73437 | -117.19725 | 23 ft | 11 kts | 106° |
| 2026-05-05 01:23 | 32.73410 | -117.19614 | 23 ft | 15 kts | 106° |
| 2026-05-05 01:24 | 32.73380 | -117.19492 | 23 ft | 15 kts | 106° |
| 2026-05-05 01:24 | 32.73352 | -117.19373 | 23 ft | 14 kts | 105° |
| 2026-05-05 01:24 | 32.73325 | -117.19261 | 24 ft | 13 kts | 106° |
| 2026-05-05 01:24 | 32.73299 | -117.19154 | 24 ft | 13 kts | 106° |
| 2026-05-05 01:25 | 32.73272 | -117.19057 | 24 ft | 9 kts | 128° |
| 2026-05-05 01:25 | 32.73217 | -117.19064 | 24 ft | 8 kts | 205° |
| 2026-05-05 01:25 | 32.73163 | -117.19094 | 23 ft | 8 kts | 205° |
| 2026-05-05 01:25 | 32.73111 | -117.19121 | 23 ft | 7 kts | 198° |
| 2026-05-05 01:26 | 32.73100 | -117.19125 | 23 ft | 0 kts | 197° |